createdAt,value
2018-06-25T09:36:45.485Z,1003.87
2018-06-25T09:37:37.503Z,1003.88
2018-06-25T09:42:22.961Z,1003.96
2018-06-25T09:44:28.322Z,1004.02
2018-06-25T09:45:29.862Z,1004.01
2018-06-25T09:46:34.895Z,1004.02
2018-06-25T09:47:28.221Z,1004.04
2018-06-25T09:48:28.228Z,1004.05
2018-06-25T09:50:28.920Z,1004.03
2018-06-25T09:51:28.150Z,1004.04
2018-06-25T09:53:28.674Z,1004.09
2018-06-25T09:54:28.055Z,1004.07
2018-06-25T09:55:49.182Z,1004.10
2018-06-25T09:56:28.170Z,1004.08
2018-06-25T09:57:38.877Z,1004.10
2018-06-25T09:58:29.754Z,1004.07
2018-06-25T09:59:30.906Z,1004.11
2018-06-25T10:01:28.121Z,1004.10
2018-06-25T10:02:49.828Z,1004.13
2018-06-25T10:03:32.892Z,1004.12
2018-06-25T10:04:28.116Z,1004.08
2018-06-25T10:05:31.435Z,1004.13
2018-06-25T10:06:28.907Z,1004.12
2018-06-25T10:07:28.892Z,1004.18
2018-06-25T10:08:34.907Z,1004.22
2018-06-25T10:09:29.852Z,1004.23
2018-06-25T10:10:30.885Z,1004.24
2018-06-25T10:11:28.892Z,1004.24
2018-06-25T10:12:29.882Z,1004.30
2018-06-25T10:13:28.867Z,1004.28
2018-06-25T10:14:30.914Z,1004.31
2018-06-25T10:15:28.038Z,1004.32
2018-06-25T10:16:28.026Z,1004.34
2018-06-25T10:17:28.534Z,1004.37
2018-06-25T10:18:28.027Z,1004.38
2018-06-25T10:21:49.906Z,1004.36
2018-06-25T10:22:44.056Z,1004.40
2018-06-25T10:24:51.060Z,1004.43
2018-06-25T10:25:53.009Z,1004.45
2018-06-25T10:27:43.978Z,1004.43
2018-06-25T10:28:43.405Z,1004.43
2018-06-25T10:30:58.318Z,1004.44
2018-06-25T10:33:23.120Z,1004.46
2018-06-25T10:34:15.242Z,1004.48
2018-06-25T10:36:36.149Z,1004.52
2018-06-25T10:48:24.493Z,1004.66
2018-06-25T10:49:13.468Z,1004.68
2018-06-25T10:51:27.492Z,1004.75
2018-06-25T10:53:33.539Z,1004.72
2018-06-25T10:56:46.817Z,1004.80
2018-06-25T10:57:38.102Z,1004.76
2018-06-25T11:08:56.368Z,1004.83
2018-06-25T11:16:33.203Z,1004.94
2018-06-25T11:17:43.224Z,1004.96
2018-06-25T11:18:33.203Z,1004.96
2018-06-25T11:19:32.502Z,1004.94
2018-06-25T11:20:33.017Z,1005.00
2018-06-25T11:21:32.552Z,1004.97
2018-06-25T11:23:32.699Z,1005.02
2018-06-25T11:24:32.483Z,1005.06
2018-06-25T11:26:04.157Z,1005.10
2018-06-25T11:26:33.002Z,1005.10
2018-06-25T11:27:43.110Z,1005.13
2018-06-25T11:28:32.459Z,1005.16
2018-06-25T11:29:39.210Z,1005.14
2018-06-25T11:30:32.445Z,1005.19
2018-06-25T11:31:33.189Z,1005.20
2018-06-25T11:34:35.344Z,1005.19
2018-06-25T11:35:37.171Z,1005.22
2018-06-25T11:36:32.421Z,1005.22
2018-06-25T11:37:32.415Z,1005.19
2018-06-25T11:38:32.394Z,1005.22
2018-06-25T11:39:53.373Z,1005.21
2018-06-25T11:40:54.192Z,1005.22
2018-06-25T11:41:37.241Z,1005.23
2018-06-25T11:42:35.225Z,1005.24
2018-06-25T11:43:43.164Z,1005.22
2018-06-25T11:44:32.356Z,1005.26
2018-06-25T11:45:32.374Z,1005.26
2018-06-25T11:46:32.365Z,1005.24
2018-06-25T11:47:33.246Z,1005.26
2018-06-25T11:48:33.219Z,1005.25
2018-06-25T11:49:58.208Z,1005.26
2018-06-25T11:50:32.392Z,1005.27
2018-06-25T11:51:37.188Z,1005.25
2018-06-25T11:52:32.365Z,1005.20
2018-06-25T11:53:33.261Z,1005.22
2018-06-25T11:54:33.248Z,1005.20
2018-06-25T11:55:33.250Z,1005.26
2018-06-25T11:59:40.512Z,1005.29
2018-06-25T12:01:53.911Z,1005.32
2018-06-25T12:02:53.863Z,1005.35
2018-06-25T12:03:53.915Z,1005.35
2018-06-25T12:05:53.894Z,1005.40
2018-06-25T12:06:53.862Z,1005.38
2018-06-25T12:07:53.843Z,1005.40
2018-06-25T12:09:53.800Z,1005.40
2018-06-25T12:10:53.880Z,1005.40
2018-06-25T12:11:58.431Z,1005.40
2018-06-25T12:12:53.819Z,1005.43
2018-06-25T12:13:54.408Z,1005.45
2018-06-25T12:14:53.679Z,1005.47
2018-06-25T12:15:56.191Z,1005.45
2018-06-25T12:16:53.861Z,1005.45
2018-06-25T12:17:56.343Z,1005.48
2018-06-25T12:18:53.846Z,1005.49
2018-06-25T12:19:53.875Z,1005.47
2018-06-25T12:20:55.324Z,1005.55
2018-06-25T12:21:54.325Z,1005.56
2018-06-25T12:22:53.811Z,1005.53
2018-06-25T12:24:53.745Z,1005.53
2018-06-25T12:26:53.757Z,1005.48
2018-06-25T12:27:53.760Z,1005.47
2018-06-25T12:28:55.405Z,1005.51
2018-06-25T12:29:55.391Z,1005.47
2018-06-25T12:30:53.765Z,1005.47
2018-06-25T12:31:55.339Z,1005.46
2018-06-25T12:33:53.687Z,1005.53
2018-06-25T12:35:54.207Z,1005.55
2018-06-25T12:36:53.748Z,1005.58
2018-06-25T12:37:53.798Z,1005.55
2018-06-25T12:59:18.108Z,1005.84
2018-06-25T13:00:23.008Z,1005.82
2018-06-25T15:57:52.784Z,1007.28
2018-06-25T15:58:52.291Z,1007.31
2018-06-25T16:04:06.092Z,1007.31
2018-06-25T16:05:03.251Z,1007.31
2018-06-25T16:07:26.257Z,1007.35
2018-06-25T16:08:21.179Z,1007.36
2018-06-25T16:12:08.634Z,1007.41
2018-06-25T16:13:12.154Z,1007.45
2018-06-25T16:15:09.544Z,1007.50
2018-06-25T16:16:02.071Z,1007.47
2018-06-25T16:18:10.740Z,1007.56
2018-06-25T16:18:54.789Z,1007.53
2018-06-25T16:20:59.338Z,1007.55
2018-06-25T16:21:54.694Z,1007.57
2018-06-25T16:24:12.791Z,1007.58
2018-06-25T16:24:43.710Z,1007.59
2018-06-25T16:38:53.325Z,1007.71
2018-06-25T16:39:48.364Z,1007.73
2018-06-25T16:40:41.848Z,1007.81
2018-06-25T16:41:42.270Z,1007.82
2018-06-25T16:42:46.325Z,1007.81
2018-06-25T16:43:43.339Z,1007.86
2018-06-25T16:44:41.788Z,1007.88
2018-06-25T16:45:52.262Z,1007.89
2018-06-25T16:46:44.385Z,1007.91
2018-06-25T16:48:41.747Z,1007.97
2018-06-25T16:50:43.817Z,1007.93
2018-06-25T16:51:41.772Z,1008.00
2018-06-25T16:52:41.680Z,1008.00
2018-06-25T16:53:42.386Z,1008.01
2018-06-25T16:54:42.363Z,1008.02
2018-06-25T16:56:41.567Z,1008.04
2018-06-25T16:57:41.581Z,1008.10
2018-06-25T16:59:44.356Z,1008.08
2018-06-25T17:00:44.317Z,1008.07
2018-06-25T17:01:48.380Z,1008.03
2018-06-25T17:03:02.578Z,1008.06
2018-06-25T17:03:41.644Z,1008.02
2018-06-25T17:04:46.357Z,1008.03
2018-06-25T17:05:44.281Z,1008.07
2018-06-25T17:06:42.288Z,1008.00
2018-06-25T17:07:41.525Z,1008.02
2018-06-25T17:09:41.539Z,1008.04
2018-06-25T17:10:41.689Z,1008.01
2018-06-25T17:11:41.548Z,1008.03
2018-06-25T17:12:42.340Z,1008.02
2018-06-25T17:13:41.551Z,1008.06
2018-06-25T17:14:41.551Z,1008.08
2018-06-25T17:15:41.455Z,1008.08
2018-06-25T17:16:41.502Z,1008.07
2018-06-25T17:17:41.541Z,1008.03
2018-06-25T17:18:41.552Z,1008.11
2018-06-25T17:19:41.501Z,1008.10
2018-06-25T17:21:41.529Z,1008.15
2018-06-25T17:22:43.288Z,1008.12
2018-06-25T17:23:46.277Z,1008.16
2018-06-25T17:24:41.355Z,1008.14
2018-06-25T17:25:46.350Z,1008.12
2018-06-25T17:26:41.438Z,1008.17
2018-06-25T17:32:12.969Z,1008.20
2018-06-25T17:33:04.709Z,1008.20
2018-06-25T17:34:04.627Z,1008.15
2018-06-25T17:36:04.662Z,1008.20
2018-06-25T17:37:05.191Z,1008.14
2018-06-25T17:38:04.594Z,1008.13
2018-06-25T17:41:04.547Z,1008.19
2018-06-25T17:44:04.588Z,1008.27
2018-06-25T17:46:04.553Z,1008.26
2018-06-25T17:47:04.522Z,1008.26
2018-06-25T17:48:06.305Z,1008.27
2018-06-25T17:49:04.544Z,1008.28
2018-06-25T17:50:04.558Z,1008.31
2018-06-25T17:52:04.502Z,1008.35
2018-06-25T17:53:04.463Z,1008.43
2018-06-25T17:54:04.539Z,1008.41
2018-06-25T17:57:04.418Z,1008.48
2018-06-25T17:58:04.437Z,1008.47
2018-06-25T17:59:04.462Z,1008.47
2018-06-25T18:00:04.349Z,1008.56
2018-06-25T18:01:04.430Z,1008.52
2018-06-25T18:02:04.439Z,1008.58
2018-06-25T18:04:04.330Z,1008.61
2018-06-25T18:05:04.262Z,1008.63
2018-06-25T18:06:07.355Z,1008.65
2018-06-25T18:07:04.824Z,1008.63
2018-06-25T18:08:04.384Z,1008.66
2018-06-25T18:10:04.376Z,1008.69
2018-06-25T18:11:04.338Z,1008.66
2018-06-25T18:12:04.824Z,1008.67
2018-06-25T18:13:04.345Z,1008.72
2018-06-25T18:14:04.199Z,1008.68
2018-06-25T18:21:56.022Z,1008.71
2018-06-25T18:22:28.815Z,1008.72
2018-06-25T18:23:28.860Z,1008.74
2018-06-25T18:25:32.183Z,1008.72
2018-06-25T18:26:30.667Z,1008.72
2018-06-25T18:27:30.665Z,1008.73
2018-06-25T18:29:29.717Z,1008.77
2018-06-25T18:30:28.827Z,1008.75
2018-06-25T18:31:28.765Z,1008.81
2018-06-25T18:32:30.684Z,1008.83
2018-06-25T18:35:47.522Z,1008.90
2018-06-25T18:36:38.905Z,1008.91
2018-06-25T18:41:01.286Z,1009.01
2018-06-25T18:41:49.849Z,1009.02
2018-06-25T18:47:47.937Z,1009.10
2018-06-25T18:48:32.469Z,1009.15
2018-06-25T18:49:28.437Z,1009.15
2018-06-25T18:50:32.465Z,1009.18
2018-06-25T18:51:34.499Z,1009.17
2018-06-25T18:52:27.894Z,1009.20
2018-06-25T18:53:27.910Z,1009.24
2018-06-25T18:54:28.408Z,1009.23
2018-06-25T18:55:28.547Z,1009.26
2018-06-25T18:56:34.479Z,1009.30
2018-06-25T18:57:27.902Z,1009.33
2018-06-25T18:58:29.391Z,1009.35
2018-06-25T18:59:42.461Z,1009.38
2018-06-25T19:00:27.805Z,1009.36
2018-06-25T19:01:29.365Z,1009.44
2018-06-25T19:02:27.766Z,1009.42
2018-06-25T19:07:09.807Z,1009.48
2018-06-25T19:08:01.770Z,1009.46
2018-06-25T19:12:33.221Z,1009.52
2018-06-25T19:13:35.005Z,1009.52
2018-06-25T19:14:32.467Z,1009.48
2018-06-25T19:15:39.146Z,1009.53
2018-06-25T19:16:34.060Z,1009.54
2018-06-25T19:17:32.485Z,1009.53
2018-06-25T19:18:32.455Z,1009.58
2018-06-25T19:19:32.420Z,1009.58
